GMFO/OUD METAR and TAF weather

Enter ICAO airport designator
Station Type Date Time Source
GMFO METAR 2018/06/25 02:00 UTC NOAA

GMFO 250200Z 32009KT 280V340 8000 SCT003 19/19 Q1016 NOSIG


Station Type Date Time Source
GMFO Decoded METAR 2018/06/25 02:00 UTC NOAA

Oujda, Morocco (GMFO) 34-47N 001-56W 470M
Jun 24, 2018 - 10:00 PM EDT / 2018.06.25 0200 UTC
Wind: from the NW (320 degrees) at 10 MPH (9 KT) (direction variable):0
Visibility: 4 mile(s):0
Sky conditions: partly cloudy
Temperature: 66 F (19 C)
Dew Point: 66 F (19 C)
Relative Humidity: 100%
Pressure (altimeter): 30.00 in. Hg (1016 hPa)
ob: GMFO 250200Z 32009KT 280V340 8000 SCT003 19/19 Q1016 NOSIG
cycle: 2

Station Type Date Time Source
GMFO TAF 2018/06/24 18:18 UTC NOAA

TAF GMFO 241700Z 2418/2524 33014KT 9999 FEW033 PROB30
TEMPO 2501/2507 33004KT 2000 BR BKN006
BECMG 2514/2518 33016KT 9999 FEW030


Example: see airport list